Time;durP1;ratioP1;P1;durP2;ratioP2;P2;SDS_P1;SDS_P2;PMS_P1;PMS_P2;Temp;Humidity;BMP_temperature;BMP_pressure;BME280_temperature;BME280_humidity;BME280_pressure;Samples;Min_cycle;Max_cycle;Signal;HPM_P1;HPM_P2
2022/05/13 00:01:46;;;;;;;0.00;0.00;;;;;;;18.83;52.28;99242.06;5066403;28;20641;-86
2022/05/13 00:04:12;;;;;;;0.00;0.00;;;;;;;18.78;52.77;99247.66;5065944;28;20036;-83
2022/05/13 00:06:38;;;;;;;0.00;0.00;;;;;;;18.73;52.78;99243.22;5048852;28;20112;-80
2022/05/13 00:09:04;;;;;;;0.10;0.10;;;;;;;18.70;52.93;99252.78;5049893;28;20029;-78
2022/05/13 00:11:29;;;;;;;0.10;0.10;;;;;;;18.66;53.13;99254.56;5050184;28;20027;-82
2022/05/13 00:13:55;;;;;;;0.00;0.00;;;;;;;18.63;53.42;99257.91;5040245;28;20045;-81
2022/05/13 00:16:20;;;;;;;0.10;0.10;;;;;;;18.59;53.62;99250.75;5066307;28;20076;-80
2022/05/13 00:18:46;;;;;;;0.10;0.10;;;;;;;18.53;53.60;99244.75;5066117;28;20024;-77
2022/05/13 00:21:12;;;;;;;0.10;0.10;;;;;;;18.50;53.94;99246.16;5049910;28;20426;-79
2022/05/13 00:23:37;;;;;;;0.10;0.10;;;;;;;18.47;53.95;99240.59;5065789;28;20088;-81
2022/05/13 00:26:03;;;;;;;0.10;0.10;;;;;;;18.47;54.21;99236.00;5049503;28;20029;-80
2022/05/13 00:28:29;;;;;;;0.00;0.00;;;;;;;18.44;54.19;99249.38;5049106;28;20178;-80
2022/05/13 00:30:55;;;;;;;0.10;0.10;;;;;;;18.41;54.36;99250.84;5066039;28;20028;-80
2022/05/13 00:33:21;;;;;;;0.10;0.10;;;;;;;18.31;54.44;99256.56;5065889;28;20036;-82
2022/05/13 00:35:48;;;;;;;0.10;0.10;;;;;;;18.26;54.36;99251.34;5048813;28;20029;-79
2022/05/13 00:38:13;;;;;;;0.10;0.10;;;;;;;18.21;54.47;99250.41;5048948;28;20515;-80
2022/05/13 00:40:41;;;;;;;0.10;0.10;;;;;;;18.13;54.57;99253.91;5048952;28;20033;-81
2022/05/13 00:43:09;;;;;;;0.00;0.00;;;;;;;18.08;54.62;99243.28;5049896;28;20021;-80
2022/05/13 00:45:35;;;;;;;0.00;0.00;;;;;;;17.97;54.69;99250.09;5049256;28;20037;-83
2022/05/13 00:48:01;;;;;;;0.10;0.10;;;;;;;17.93;55.00;99253.44;5066442;28;20408;-86
2022/05/13 00:50:30;;;;;;;0.00;0.00;;;;;;;17.89;55.25;99243.56;5048561;28;20091;-82
2022/05/13 00:52:56;;;;;;;0.10;0.10;;;;;;;17.90;55.19;99242.47;5048962;28;20577;-80
2022/05/13 00:55:30;;;;;;;0.00;0.00;;;;;;;17.85;55.22;99251.53;5049451;28;20041;-82
2022/05/13 00:57:57;;;;;;;0.10;0.10;;;;;;;17.80;55.44;99259.81;5049414;28;20025;-83
2022/05/13 01:00:23;;;;;;;0.00;0.00;;;;;;;17.81;55.53;99252.47;5066240;28;20120;-86
2022/05/13 01:02:48;;;;;;;0.10;0.10;;;;;;;17.85;55.39;99248.03;5070928;28;20449;-85
2022/05/13 01:05:17;;;;;;;0.00;0.00;;;;;;;17.83;55.56;99248.34;5069560;28;20040;-84
2022/05/13 01:07:43;;;;;;;0.00;0.00;;;;;;;17.82;55.64;99245.97;5053901;28;20120;-84
2022/05/13 01:10:15;;;;;;;0.00;0.00;;;;;;;17.84;55.54;99251.84;5054109;28;20040;-81
2022/05/13 01:12:44;;;;;;;0.00;0.00;;;;;;;17.83;56.00;99244.84;5053045;28;20032;-81
2022/05/13 01:15:16;;;;;;;0.00;0.00;;;;;;;17.78;56.11;99240.41;5053688;28;20037;-81
2022/05/13 01:20:31;;;;;;;0.30;0.30;;;;;;;17.82;55.49;99243.25;5049897;28;20036;-79
2022/05/13 01:23:01;;;;;;;0.00;0.00;;;;;;;17.79;55.96;99241.22;5048366;28;20036;-77
2022/05/13 01:25:29;;;;;;;0.00;0.00;;;;;;;17.81;56.13;99239.78;5053945;28;20121;-82
2022/05/13 01:28:04;;;;;;;0.10;0.10;;;;;;;17.84;56.46;99238.34;5052884;28;20033;-83
2022/05/13 01:30:30;;;;;;;0.00;0.00;;;;;;;17.77;56.32;99230.69;5053133;28;20064;-81
2022/05/13 01:32:56;;;;;;;0.10;0.10;;;;;;;17.77;55.93;99234.19;5052406;28;20060;-81
2022/05/13 01:35:22;;;;;;;0.10;0.10;;;;;;;17.73;55.75;99229.75;5052498;28;20132;-81
2022/05/13 01:37:48;;;;;;;0.05;0.05;;;;;;;17.72;56.33;99233.56;5054165;28;20504;-81
2022/05/13 01:40:14;;;;;;;0.00;0.00;;;;;;;17.69;56.45;99236.91;5069288;28;20515;-81
2022/05/13 01:42:40;;;;;;;0.00;0.00;;;;;;;17.66;56.77;99227.50;5052184;28;20041;-80
2022/05/13 01:45:07;;;;;;;0.10;0.10;;;;;;;17.63;56.71;99232.78;5069097;28;20385;-81
2022/05/13 01:47:34;;;;;;;0.08;0.08;;;;;;;17.59;56.87;99233.41;5052368;28;20060;-81
2022/05/13 01:50:00;;;;;;;0.00;0.00;;;;;;;17.55;57.00;99226.25;5051874;28;20029;-80
2022/05/13 01:52:26;;;;;;;0.05;0.05;;;;;;;17.54;57.22;99219.25;5054079;28;20033;-81
2022/05/13 01:54:51;;;;;;;0.00;0.00;;;;;;;17.51;57.57;99214.47;5068997;28;20032;-81
2022/05/13 01:57:17;;;;;;;0.00;0.00;;;;;;;17.51;57.26;99212.56;5069511;28;20025;-80
2022/05/13 01:59:42;;;;;;;0.00;0.00;;;;;;;17.49;57.42;99217.50;5068744;28;20496;-79
2022/05/13 02:02:08;;;;;;;0.03;0.03;;;;;;;17.45;57.49;99216.53;5052108;28;20131;-82
2022/05/13 02:04:33;;;;;;;0.10;0.10;;;;;;;17.42;57.51;99212.56;5051670;28;20057;-81
2022/05/13 02:06:59;;;;;;;0.10;0.10;;;;;;;17.41;57.69;99216.38;5051652;28;20516;-83
2022/05/13 02:09:25;;;;;;;0.10;0.10;;;;;;;17.40;57.63;99220.19;5055153;28;20551;-87
2022/05/13 02:11:51;;;;;;;0.10;0.10;;;;;;;17.39;57.73;99218.63;5051121;28;20052;-84
2022/05/13 02:14:18;;;;;;;0.00;0.00;;;;;;;17.41;57.77;99219.09;5052253;28;20025;-83
2022/05/13 02:16:43;;;;;;;0.10;0.10;;;;;;;17.37;57.49;99217.31;5051785;28;20040;-83
2022/05/13 02:19:09;;;;;;;0.08;0.08;;;;;;;17.37;57.81;99212.72;5052092;28;20024;-83
2022/05/13 02:21:35;;;;;;;0.10;0.10;;;;;;;17.32;57.82;99212.06;5051658;28;20467;-83
2022/05/13 02:24:01;;;;;;;0.20;0.20;;;;;;;17.29;57.93;99221.63;5068053;28;20025;-88
2022/05/13 02:26:27;;;;;;;0.00;0.00;;;;;;;17.28;57.95;99218.13;5068686;28;20147;-87
2022/05/13 02:28:52;;;;;;;0.00;0.00;;;;;;;17.21;58.17;99214.28;5051281;28;20498;-79
2022/05/13 02:31:18;;;;;;;0.10;0.10;;;;;;;17.20;58.22;99220.78;5068769;28;20531;-84
2022/05/13 02:33:44;;;;;;;0.00;0.00;;;;;;;17.15;58.25;99219.06;5051799;28;20063;-82
2022/05/13 02:36:11;;;;;;;0.00;0.00;;;;;;;17.15;58.19;99219.06;5068086;28;20029;-82
2022/05/13 02:38:37;;;;;;;0.00;0.00;;;;;;;17.15;58.36;99226.38;5051137;28;20123;-83
2022/05/13 02:41:13;;;;;;;0.20;0.20;;;;;;;17.10;58.25;99219.19;5051087;28;20478;-83
2022/05/13 02:43:48;;;;;;;0.00;0.00;;;;;;;17.07;58.22;99214.44;5051826;28;20098;-83
2022/05/13 02:46:23;;;;;;;0.55;0.40;;;;;;;17.05;58.00;99225.56;5068029;28;20506;-76
2022/05/13 02:48:49;;;;;;;0.05;0.05;;;;;;;17.03;58.26;99237.78;5051965;28;20033;-77
2022/05/13 02:51:15;;;;;;;0.10;0.10;;;;;;;16.97;58.16;99220.94;5067811;28;20557;-76
2022/05/13 02:53:41;;;;;;;0.00;0.00;;;;;;;16.95;58.30;99223.13;5050517;28;20444;-77
2022/05/13 02:56:07;;;;;;;0.00;0.00;;;;;;;16.91;58.44;99217.53;5050959;28;20421;-76
2022/05/13 02:58:34;;;;;;;0.10;0.10;;;;;;;16.88;58.86;99228.19;5052393;28;20053;-78
2022/05/13 03:01:00;;;;;;;0.03;0.03;;;;;;;16.86;58.88;99220.38;5051300;28;20047;-77
2022/05/13 03:03:26;;;;;;;0.10;0.10;;;;;;;16.79;58.89;99228.94;5068198;28;20025;-77
2022/05/13 03:05:51;;;;;;;0.10;0.10;;;;;;;16.73;59.35;99230.19;5051506;28;20114;-76
2022/05/13 03:08:17;;;;;;;0.00;0.00;;;;;;;16.68;59.51;99232.25;5052892;28;20438;-76
2022/05/13 03:10:42;;;;;;;0.00;0.00;;;;;;;16.64;59.92;99234.78;5050065;28;20047;-77
2022/05/13 03:13:09;;;;;;;0.00;0.00;;;;;;;16.72;59.75;99235.91;5051495;28;20060;-83
2022/05/13 03:15:35;;;;;;;0.00;0.00;;;;;;;16.84;59.95;99238.81;5051467;28;20048;-83
2022/05/13 03:18:00;;;;;;;0.00;0.00;;;;;;;16.90;59.82;99231.38;5067321;28;20511;-83
2022/05/13 03:20:26;;;;;;;0.00;0.00;;;;;;;17.10;59.55;99238.09;5050842;28;20033;-85
2022/05/13 03:22:52;;;;;;;0.00;0.00;;;;;;;17.31;59.18;99227.50;5050481;28;20196;-86
2022/05/13 03:25:20;;;;;;;0.00;0.00;;;;;;;17.62;58.99;99228.47;5050637;28;20025;-86
2022/05/13 03:27:45;;;;;;;0.03;0.03;;;;;;;17.91;57.87;99230.53;5050550;28;20033;-84
2022/05/13 03:30:14;;;;;;;0.20;0.20;;;;;;;18.21;57.32;99238.75;5066198;28;20566;-85
2022/05/13 03:32:40;;;;;;;0.05;0.05;;;;;;;18.57;56.41;99240.25;5042609;28;20030;-85
2022/05/13 03:35:08;;;;;;;0.10;0.10;;;;;;;18.99;55.20;99240.44;5058391;28;20029;-83
2022/05/13 03:37:34;;;;;;;;;;;;;;;19.43;54.28;99240.16;5067508;28;20025;-87
2022/05/13 03:39:59;;;;;;;0.10;0.10;;;;;;;19.87;53.08;99237.06;5050046;28;19913;-86
2022/05/13 03:42:25;;;;;;;0.00;0.00;;;;;;;20.27;51.68;99246.59;5050797;28;20064;-85
2022/05/13 03:44:51;;;;;;;0.10;0.10;;;;;;;20.70;51.04;99248.03;5051038;28;20045;-89
2022/05/13 03:47:17;;;;;;;0.00;0.00;;;;;;;21.15;49.82;99240.88;5069162;28;20040;-88
2022/05/13 03:49:42;;;;;;;0.00;0.00;;;;;;;21.61;48.34;99239.94;5049936;28;20036;-86
2022/05/13 03:52:09;;;;;;;0.10;0.10;;;;;;;22.05;47.01;99251.63;5067453;28;20025;-88
2022/05/13 03:54:34;;;;;;;0.08;0.08;;;;;;;22.49;45.71;99255.50;5066651;28;20036;-89
2022/05/13 03:57:00;;;;;;;0.00;0.00;;;;;;;22.90;44.56;99247.13;5050364;28;20447;-86
2022/05/13 03:59:26;;;;;;;0.00;0.00;;;;;;;23.37;43.28;99259.91;5050130;28;20481;-87
2022/05/13 04:01:52;;;;;;;0.00;0.00;;;;;;;23.72;42.43;99264.53;5049458;28;20069;-88
2022/05/13 04:04:21;;;;;;;0.00;0.00;;;;;;;24.11;41.47;99266.50;5049933;28;20420;-85
2022/05/13 04:09:32;;;;;;;0.00;0.00;;;;;;;24.93;39.86;99278.03;5050812;28;20036;-77
2022/05/13 04:17:25;;;;;;;0.70;0.40;;;;;;;26.23;37.22;99289.13;5051206;28;20055;-79
2022/05/13 04:19:50;;;;;;;0.00;0.00;;;;;;;26.58;36.58;99290.66;5042619;28;20103;-79
2022/05/13 04:22:16;;;;;;;0.00;0.00;;;;;;;26.94;35.41;99296.44;5049587;28;20029;-78
2022/05/13 04:24:41;;;;;;;0.10;0.10;;;;;;;27.20;35.20;99281.72;5048750;28;20378;-76
2022/05/13 04:27:07;;;;;;;0.00;0.00;;;;;;;27.54;34.24;99287.03;5049826;28;20028;-81
2022/05/13 04:29:33;;;;;;;0.00;0.00;;;;;;;27.83;33.72;99281.66;5065730;28;20120;-80
2022/05/13 04:31:59;;;;;;;0.03;0.03;;;;;;;28.11;33.56;99283.72;5049178;28;20041;-78
2022/05/13 04:34:24;;;;;;;0.00;0.00;;;;;;;28.42;32.89;99286.91;5065953;28;20119;-80
2022/05/13 04:36:51;;;;;;;0.28;0.20;;;;;;;28.72;32.73;99288.53;5049617;28;20119;-79
2022/05/13 04:39:17;;;;;;;0.00;0.00;;;;;;;28.99;31.99;99290.88;5049412;28;20029;-79
2022/05/13 04:44:26;;;;;;;0.00;0.00;;;;;;;29.57;30.92;99306.53;5051019;28;20071;-79
2022/05/13 04:46:52;;;;;;;0.00;0.00;;;;;;;29.85;30.61;99306.41;5049311;28;20045;-80
2022/05/13 04:49:18;;;;;;;0.00;0.00;;;;;;;30.09;30.30;99309.47;5033349;28;20048;-80
2022/05/13 04:51:43;;;;;;;0.00;0.00;;;;;;;30.33;29.64;99304.19;5049248;28;20371;-79
2022/05/13 04:54:10;;;;;;;0.20;0.20;;;;;;;30.58;29.43;99309.56;5049630;28;20037;-79
2022/05/13 04:56:36;;;;;;;0.00;0.00;;;;;;;30.82;29.20;99313.31;5049801;28;20102;-79
2022/05/13 04:59:03;;;;;;;0.10;0.10;;;;;;;31.03;29.41;99306.03;5049308;28;20040;-80
2022/05/13 05:01:28;;;;;;;0.00;0.00;;;;;;;31.24;28.70;99302.28;5049512;28;20021;-81
2022/05/13 05:03:54;;;;;;;0.00;0.00;;;;;;;31.41;28.28;99300.53;5049208;28;20028;-79
2022/05/13 05:06:20;;;;;;;0.00;0.00;;;;;;;31.57;28.54;99297.19;5049391;28;20029;-79
2022/05/13 05:08:48;;;;;;;0.00;0.00;;;;;;;31.73;28.13;99293.88;5049313;28;20033;-79
2022/05/13 05:11:15;;;;;;;0.00;0.00;;;;;;;31.91;28.03;99303.94;5049378;28;20132;-80
2022/05/13 05:13:46;;;;;;;0.00;0.00;;;;;;;32.06;27.91;99299.75;5049123;28;20029;-81
2022/05/13 05:16:15;;;;;;;0.00;0.00;;;;;;;32.25;27.72;99297.53;5049184;28;20064;-81
2022/05/13 05:18:40;;;;;;;0.00;0.00;;;;;;;32.45;27.69;99294.88;5048702;28;20052;-80
2022/05/13 05:21:08;;;;;;;0.00;0.00;;;;;;;32.59;26.91;99293.84;5049217;28;20468;-81
2022/05/13 05:23:38;;;;;;;0.00;0.00;;;;;;;32.78;27.30;99294.38;5049235;28;20032;-81
2022/05/13 05:26:04;;;;;;;0.00;0.00;;;;;;;32.88;26.54;99296.16;5049303;28;20025;-80
2022/05/13 05:28:30;;;;;;;0.00;0.00;;;;;;;32.87;25.85;99302.91;5049188;28;20074;-80
2022/05/13 05:30:57;;;;;;;0.00;0.00;;;;;;;32.99;25.63;99301.53;5048951;28;20020;-80
2022/05/13 05:33:23;;;;;;;0.10;0.10;;;;;;;32.63;25.99;99304.84;5049262;28;20037;-81
2022/05/13 05:35:48;;;;;;;0.10;0.10;;;;;;;32.54;25.81;99308.97;5049046;28;20476;-80
2022/05/13 05:38:13;;;;;;;1.10;0.17;;;;;;;32.30;25.66;99305.38;5049137;28;20025;-80
2022/05/13 05:40:39;;;;;;;0.00;0.00;;;;;;;32.07;26.42;99301.31;5048700;28;20029;-81
2022/05/13 05:43:08;;;;;;;0.00;0.00;;;;;;;32.09;26.69;99303.66;5049200;28;20407;-81
2022/05/13 05:45:35;;;;;;;0.00;0.00;;;;;;;32.22;26.66;99301.91;5049016;28;20037;-81
2022/05/13 05:48:00;;;;;;;0.00;0.00;;;;;;;32.44;26.38;99298.84;5050426;28;20033;-80
2022/05/13 05:50:26;;;;;;;0.00;0.00;;;;;;;32.64;26.46;99304.47;5052801;28;20033;-79
2022/05/13 05:52:51;;;;;;;0.20;0.20;;;;;;;32.79;26.68;99301.47;5052454;28;20033;-80
2022/05/13 05:58:02;;;;;;;0.00;0.00;;;;;;;33.37;25.90;99306.78;5053804;28;20051;-80
2022/05/13 06:00:30;;;;;;;0.00;0.00;;;;;;;33.60;25.43;99300.38;5053548;28;20436;-80
2022/05/13 06:02:56;;;;;;;0.00;0.00;;;;;;;33.75;25.17;99298.09;5052277;28;20403;-80
2022/05/13 06:05:23;;;;;;;0.13;0.13;;;;;;;33.77;25.32;99294.91;5051987;28;20128;-81
2022/05/13 06:07:49;;;;;;;0.00;0.00;;;;;;;33.75;24.85;99298.09;5052175;28;20021;-79
2022/05/13 06:10:15;;;;;;;0.00;0.00;;;;;;;33.76;24.95;99296.09;5052544;28;20025;-79
2022/05/13 06:12:41;;;;;;;0.03;0.03;;;;;;;33.60;25.19;99299.59;5052090;28;20556;-81
2022/05/13 06:15:07;;;;;;;0.00;0.00;;;;;;;33.66;25.57;99304.22;5052434;28;20119;-80
2022/05/13 06:17:33;;;;;;;0.00;0.00;;;;;;;33.53;25.67;99300.53;5052314;28;20068;-80
2022/05/13 06:20:05;;;;;;;0.00;0.00;;;;;;;33.48;24.97;99299.06;5051983;28;20064;-81
2022/05/13 06:22:30;;;;;;;0.00;0.00;;;;;;;33.32;25.53;99296.97;5052159;28;20036;-81
2022/05/13 06:24:56;;;;;;;0.00;0.00;;;;;;;33.22;26.15;99300.69;5051946;28;20409;-81
2022/05/13 06:27:21;;;;;;;0.13;0.13;;;;;;;33.06;26.33;99301.41;5053398;28;20028;-80
2022/05/13 06:29:47;;;;;;;0.20;0.20;;;;;;;33.05;26.45;99297.81;5051997;28;20082;-78
2022/05/13 06:32:12;;;;;;;0.10;0.10;;;;;;;32.94;26.72;99293.72;5052041;28;20029;-81
2022/05/13 06:34:38;;;;;;;0.00;0.00;;;;;;;32.71;27.16;99296.03;5051982;28;20029;-80
2022/05/13 06:37:03;;;;;;;0.00;0.00;;;;;;;32.56;27.21;99289.94;5051563;28;20025;-81
2022/05/13 06:39:29;;;;;;;0.20;0.20;;;;;;;32.38;27.49;99290.22;5051805;28;20099;-80
2022/05/13 06:41:54;;;;;;;0.00;0.00;;;;;;;32.22;27.83;99295.63;5051405;28;20140;-80
2022/05/13 06:44:20;;;;;;;0.00;0.00;;;;;;;32.06;27.62;99293.44;5051592;28;20025;-81
2022/05/13 06:46:47;;;;;;;0.00;0.00;;;;;;;31.90;27.57;99296.81;5051489;28;20040;-81
2022/05/13 06:49:14;;;;;;;0.22;0.22;;;;;;;31.72;27.80;99286.75;5051665;28;20032;-81
2022/05/13 06:51:40;;;;;;;0.00;0.00;;;;;;;31.63;28.28;99286.47;5051354;28;20283;-80
2022/05/13 06:54:09;;;;;;;0.00;0.00;;;;;;;31.37;28.54;99285.19;5068249;28;20016;-80
2022/05/13 06:56:37;;;;;;;0.00;0.00;;;;;;;30.91;29.09;99282.47;5051503;28;20033;-81
2022/05/13 06:59:04;;;;;;;0.05;0.05;;;;;;;30.72;29.34;99281.06;5050972;28;20021;-81
2022/05/13 07:01:30;;;;;;;0.00;0.00;;;;;;;30.54;29.70;99289.50;5051514;28;20035;-80
2022/05/13 07:03:55;;;;;;;0.00;0.00;;;;;;;30.47;29.70;99287.53;5051227;28;20033;-80
2022/05/13 07:06:21;;;;;;;0.00;0.00;;;;;;;30.35;30.06;99290.78;5051518;28;20043;-79
2022/05/13 07:08:50;;;;;;;0.10;0.10;;;;;;;30.30;30.11;99293.97;5051213;28;20024;-81
2022/05/13 07:11:20;;;;;;;0.28;0.10;;;;;;;30.14;29.92;99292.50;5051335;28;20040;-81
2022/05/13 07:13:46;;;;;;;0.00;0.00;;;;;;;30.11;30.29;99292.50;5051130;28;20052;-79
2022/05/13 07:16:11;;;;;;;0.10;0.10;;;;;;;30.01;30.16;99288.63;5051229;28;20072;-79
2022/05/13 07:18:38;;;;;;;0.00;0.00;;;;;;;29.90;30.73;99285.13;5051157;28;20021;-79
2022/05/13 07:21:04;;;;;;;0.15;0.15;;;;;;;29.76;30.44;99280.44;5050922;28;20059;-79
2022/05/13 07:23:29;;;;;;;0.00;0.00;;;;;;;29.64;29.40;99284.47;5051090;28;20039;-79
2022/05/13 07:25:55;;;;;;;0.35;0.35;;;;;;;29.51;29.93;99276.59;5050808;28;20033;-79
2022/05/13 07:28:21;;;;;;;0.00;0.00;;;;;;;29.58;30.77;99275.00;5050834;28;20359;-80
2022/05/13 07:30:48;;;;;;;0.00;0.00;;;;;;;29.46;30.66;99274.28;5050813;28;20528;-80
2022/05/13 07:33:13;;;;;;;0.05;0.05;;;;;;;29.31;30.50;99272.72;5050767;28;20059;-80
2022/05/13 07:35:39;;;;;;;0.00;0.00;;;;;;;29.14;31.34;99275.13;5051011;28;20068;-81
2022/05/13 07:38:06;;;;;;;0.00;0.00;;;;;;;29.04;31.44;99273.97;5050501;28;20116;-80
2022/05/13 07:43:16;;;;;;;0.20;0.20;;;;;;;28.89;32.73;99267.69;5052070;28;20302;-80
2022/05/13 07:45:42;;;;;;;0.00;0.00;;;;;;;28.86;33.29;99262.97;5050446;28;20057;-80
2022/05/13 07:48:07;;;;;;;0.20;0.20;;;;;;;28.80;33.84;99269.28;5050653;28;20058;-81
2022/05/13 07:50:33;;;;;;;0.40;0.40;;;;;;;28.58;33.74;99263.75;5050580;28;20025;-81
2022/05/13 07:52:58;;;;;;;0.00;0.00;;;;;;;28.22;34.73;99260.97;5050109;28;20037;-81
2022/05/13 07:55:24;;;;;;;0.00;0.00;;;;;;;28.00;35.04;99260.88;5050473;28;20029;-81
2022/05/13 07:57:50;;;;;;;2.40;0.47;;;;;;;27.90;35.88;99264.41;5050212;28;20133;-81
2022/05/13 08:00:32;;;;;;;0.32;0.32;;;;;;;27.84;35.58;99263.97;5050508;28;20017;-81
2022/05/13 08:03:05;;;;;;;0.00;0.00;;;;;;;27.81;36.29;99262.03;5050235;28;20040;-80
2022/05/13 08:05:36;;;;;;;0.10;0.10;;;;;;;27.77;35.33;99261.22;5050290;28;20021;-80
2022/05/13 08:08:11;;;;;;;0.22;0.22;;;;;;;27.68;33.12;99260.81;5050099;28;20036;-81
2022/05/13 08:10:39;;;;;;;0.40;0.40;;;;;;;27.59;33.30;99264.69;5049570;28;20074;-81
2022/05/13 08:13:05;;;;;;;0.00;0.00;;;;;;;27.57;32.82;99258.00;5049971;28;20437;-80
2022/05/13 08:15:31;;;;;;;0.00;0.00;;;;;;;27.63;32.75;99259.22;5050162;28;20029;-79
2022/05/13 08:17:57;;;;;;;0.00;0.00;;;;;;;27.67;32.27;99253.72;5049716;28;20410;-80
2022/05/13 08:20:23;;;;;;;0.00;0.00;;;;;;;27.72;31.93;99256.91;5050093;28;20029;-80
2022/05/13 08:22:48;;;;;;;1.08;0.57;;;;;;;27.76;32.26;99248.66;5049768;28;20025;-80
2022/05/13 08:25:14;;;;;;;0.20;0.20;;;;;;;27.78;31.69;99249.84;5050010;28;20028;-81
2022/05/13 08:27:40;;;;;;;0.17;0.17;;;;;;;27.71;31.98;99243.53;5049823;28;20043;-80
2022/05/13 08:30:06;;;;;;;0.20;0.20;;;;;;;27.72;32.56;99236.84;5049686;28;20032;-81
2022/05/13 08:32:33;;;;;;;0.00;0.00;;;;;;;27.79;31.59;99239.63;5049787;28;20064;-81
2022/05/13 08:34:58;;;;;;;0.03;0.03;;;;;;;27.74;31.38;99246.28;5049472;28;20025;-80
2022/05/13 08:37:23;;;;;;;0.00;0.00;;;;;;;27.66;31.82;99233.72;5049617;28;20105;-80
2022/05/13 08:39:49;;;;;;;0.00;0.00;;;;;;;27.70;32.13;99241.97;5049499;28;20039;-81
2022/05/13 08:42:35;;;;;;;0.00;0.00;;;;;;;27.64;31.67;99234.09;5049593;28;20408;-80
2022/05/13 08:45:02;;;;;;;0.00;0.00;;;;;;;27.66;31.87;99235.66;5049608;28;20108;-80
2022/05/13 08:47:49;;;;;;;0.00;0.00;;;;;;;27.64;32.50;99236.06;5049596;28;20059;-80
2022/05/13 08:50:32;;;;;;;0.00;0.00;;;;;;;27.63;31.11;99232.50;5049556;28;20477;-80
2022/05/13 08:53:08;;;;;;;0.00;0.00;;;;;;;27.64;31.26;99231.34;5049497;28;20051;-80
2022/05/13 08:55:56;;;;;;;0.20;0.20;;;;;;;27.62;31.27;99221.91;5066282;28;20389;-80
2022/05/13 08:58:29;;;;;;;0.00;0.00;;;;;;;27.62;32.34;99219.97;5049325;28;20053;-80
2022/05/13 09:00:57;;;;;;;0.20;0.20;;;;;;;27.67;32.49;99221.53;5049351;28;20088;-81
2022/05/13 09:03:46;;;;;;;0.00;0.00;;;;;;;27.77;30.70;99222.75;5049470;28;20122;-80
2022/05/13 09:06:16;;;;;;;0.00;0.00;;;;;;;27.72;30.77;99218.44;5049429;28;20492;-81
2022/05/13 09:08:42;;;;;;;0.20;0.20;;;;;;;27.73;31.18;99211.75;5049323;28;20040;-82
2022/05/13 09:11:30;;;;;;;0.00;0.00;;;;;;;27.72;31.20;99201.94;5049474;28;20025;-82
2022/05/13 09:14:28;;;;;;;0.00;0.00;;;;;;;27.76;30.55;99205.47;5049241;28;20450;-81
2022/05/13 09:17:12;;;;;;;0.05;0.05;;;;;;;27.81;30.26;99209.81;5049315;28;20117;-80
2022/05/13 09:19:44;;;;;;;0.10;0.10;;;;;;;27.87;29.25;99213.75;5049303;28;20031;-80
2022/05/13 09:22:11;;;;;;;0.00;0.00;;;;;;;27.90;28.44;99201.97;5068090;28;20063;-80
2022/05/13 09:24:37;;;;;;;0.00;0.00;;;;;;;27.95;28.63;99203.53;5053089;28;20021;-81
2022/05/13 09:27:03;;;;;;;0.00;0.00;;;;;;;27.97;28.07;99206.69;5053000;28;20040;-81
2022/05/13 09:29:46;;;;;;;0.00;0.00;;;;;;;27.97;25.32;99198.47;5052954;28;20132;-80
2022/05/13 09:32:29;;;;;;;0.20;0.20;;;;;;;27.86;25.27;99187.44;5053087;28;20115;-81
2022/05/13 09:34:58;;;;;;;0.00;0.00;;;;;;;27.79;25.57;99185.47;5053028;28;20028;-80
2022/05/13 09:37:26;;;;;;;0.00;0.00;;;;;;;27.73;26.43;99188.97;5053014;28;20037;-80
2022/05/13 09:40:11;;;;;;;0.00;0.00;;;;;;;27.66;26.47;99177.97;5052606;28;20341;-81
2022/05/13 09:42:40;;;;;;;0.10;0.10;;;;;;;27.57;25.82;99170.88;5052392;28;20059;-82
2022/05/13 09:45:16;;;;;;;0.43;0.43;;;;;;;27.47;25.90;99169.69;5052741;28;20053;-81
2022/05/13 09:47:42;;;;;;;0.52;0.52;;;;;;;27.45;26.20;99171.25;5052713;28;20032;-81
2022/05/13 09:50:24;;;;;;;0.00;0.00;;;;;;;27.46;26.00;99170.06;5052635;28;20078;-80
2022/05/13 09:52:51;;;;;;;0.00;0.00;;;;;;;27.48;25.83;99162.25;5052672;28;20065;-80
2022/05/13 09:55:32;;;;;;;0.00;0.00;;;;;;;27.52;25.83;99163.03;5052685;28;20083;-80
2022/05/13 09:58:01;;;;;;;0.00;0.00;;;;;;;27.58;25.84;99149.72;5052295;28;20467;-81
2022/05/13 10:00:30;;;;;;;0.00;0.00;;;;;;;27.68;26.05;99148.94;5052716;28;20059;-81
2022/05/13 10:03:10;;;;;;;0.00;0.00;;;;;;;27.73;25.19;99140.31;5052451;28;20064;-81
2022/05/13 10:05:36;;;;;;;0.00;0.00;;;;;;;27.77;25.01;99134.81;5052667;28;20036;-80
2022/05/13 10:08:07;;;;;;;0.00;0.00;;;;;;;27.87;25.30;99136.00;5052214;28;20094;-80
2022/05/13 10:16:23;;;;;;;0.00;0.00;;;;;;;27.99;24.88;99118.34;5053363;28;20141;-80
2022/05/13 10:18:57;;;;;;;0.10;0.10;;;;;;;28.03;24.54;99119.94;5052103;28;20113;-80
2022/05/13 10:21:34;;;;;;;0.03;0.03;;;;;;;28.03;24.27;99116.41;5052206;28;20028;-80
2022/05/13 10:24:21;;;;;;;0.00;0.00;;;;;;;28.09;23.94;99117.59;5051980;28;20120;-80
2022/05/13 10:26:49;;;;;;;0.00;0.00;;;;;;;28.06;23.75;99110.94;5051850;28;20056;-81
2022/05/13 10:29:26;;;;;;;;;;;;;;;28.05;22.38;99112.13;5052514;28;20118;-80
2022/05/13 10:31:53;;;;;;;;;;;;;;;28.03;22.97;99111.69;5052287;28;19920;-80
2022/05/13 10:34:19;;;;;;;0.00;0.00;;;;;;;28.01;21.94;99108.53;5051365;28;19912;-80
2022/05/13 10:36:54;;;;;;;0.00;0.00;;;;;;;28.00;22.01;99097.94;5068818;28;20044;-80
2022/05/13 10:39:24;;;;;;;0.00;0.00;;;;;;;28.05;22.39;99092.06;5052194;28;20503;-80
2022/05/13 10:41:57;;;;;;;0.10;0.10;;;;;;;28.10;21.75;99086.97;5051541;28;20448;-79
2022/05/13 10:44:23;;;;;;;0.00;0.00;;;;;;;28.13;21.62;99081.88;5051617;28;20039;-81
2022/05/13 10:46:53;;;;;;;0.00;0.00;;;;;;;28.19;21.76;99096.78;5068271;28;20028;-80
2022/05/13 10:49:19;;;;;;;0.00;0.00;;;;;;;28.20;21.42;99081.88;5051824;28;20120;-81
2022/05/13 10:51:54;;;;;;;0.00;0.00;;;;;;;28.24;21.16;99083.41;5051720;28;20482;-80
2022/05/13 10:54:39;;;;;;;0.00;0.00;;;;;;;28.23;20.91;99070.84;5051797;28;20086;-81
2022/05/13 10:57:30;;;;;;;0.10;0.10;;;;;;;28.26;21.43;99080.28;5040337;28;20043;-81
2022/05/13 11:00:19;;;;;;;0.00;0.00;;;;;;;28.20;21.47;99068.13;5051486;28;20013;-80
2022/05/13 11:02:57;;;;;;;0.00;0.00;;;;;;;28.11;20.72;99063.00;5051634;28;20036;-81
2022/05/13 11:05:33;;;;;;;0.00;0.00;;;;;;;28.11;21.84;99055.56;5052198;28;20396;-81
2022/05/13 11:08:24;;;;;;;0.10;0.10;;;;;;;28.15;23.02;99063.00;5051212;28;20071;-80
2022/05/13 11:11:19;;;;;;;0.17;0.17;;;;;;;28.11;22.39;99063.00;5051360;28;20032;-80
2022/05/13 11:14:08;;;;;;;0.00;0.00;;;;;;;28.08;23.16;99048.09;5051450;28;20036;-80
2022/05/13 11:16:38;;;;;;;0.03;0.03;;;;;;;28.10;23.35;99053.22;5040227;28;20128;-80
2022/05/13 11:19:19;;;;;;;0.00;0.00;;;;;;;28.12;24.07;99059.06;5050995;28;20027;-80
2022/05/13 11:22:02;;;;;;;0.00;0.00;;;;;;;28.10;24.46;99048.47;5051138;28;20488;-80
2022/05/13 11:27:43;;;;;;;1.17;0.28;;;;;;;28.06;24.74;99033.16;5052064;28;20048;-81
2022/05/13 11:30:19;;;;;;;0.00;0.00;;;;;;;28.00;24.96;99030.00;5067306;28;20029;-81
2022/05/13 11:32:45;;;;;;;0.35;0.35;;;;;;;28.02;24.78;99035.13;5050830;28;20507;-80
2022/05/13 11:35:37;;;;;;;0.00;0.00;;;;;;;28.00;25.44;99031.97;5067304;28;20029;-80
2022/05/13 11:38:11;;;;;;;0.00;0.00;;;;;;;27.95;25.15;99011.97;5050372;28;20025;-80
2022/05/13 11:40:56;;;;;;;0.10;0.10;;;;;;;27.92;25.21;99025.72;5050623;28;20031;-81
2022/05/13 11:43:22;;;;;;;0.30;0.25;;;;;;;27.91;24.61;99022.16;5050781;28;20040;-81
2022/05/13 11:46:15;;;;;;;0.00;0.00;;;;;;;27.91;24.39;99021.38;5066236;28;20029;-81
2022/05/13 11:48:50;;;;;;;0.00;0.00;;;;;;;27.92;24.33;99025.72;5050634;28;20070;-80
2022/05/13 11:51:15;;;;;;;0.17;0.17;;;;;;;27.89;23.93;99013.53;5050627;28;20032;-81
2022/05/13 11:53:41;;;;;;;0.00;0.00;;;;;;;27.90;24.17;99008.81;5067171;28;20032;-80
2022/05/13 11:56:30;;;;;;;0.10;0.10;;;;;;;27.87;24.33;99002.16;5066969;28;20025;-80
2022/05/13 11:59:12;;;;;;;0.00;0.00;;;;;;;27.82;24.62;98994.31;5050265;28;20031;-80
2022/05/13 12:01:43;;;;;;;0.15;0.15;;;;;;;27.86;25.64;98994.31;5050632;28;20033;-81
2022/05/13 12:04:12;;;;;;;0.00;0.00;;;;;;;27.90;25.66;98990.34;5066892;28;20028;-81
2022/05/13 12:06:50;;;;;;;0.00;0.00;;;;;;;27.96;25.03;98993.50;5066959;28;20025;-81
2022/05/13 12:09:28;;;;;;;;;;;;;;;28.04;24.54;98997.81;5067308;28;20480;-80
2022/05/13 12:12:31;;;;;;;0.68;0.45;;;;;;;28.06;24.28;98986.44;5051273;28;20011;-81